createdAt,value
2022-08-05T00:04:21.276Z,100631.44
2022-08-05T00:09:27.365Z,100642.09
2022-08-05T00:14:35.311Z,100642.75
2022-08-05T00:19:45.702Z,100652.97
2022-08-05T00:25:02.319Z,100650.84
2022-08-05T00:30:12.518Z,100669.31
2022-08-05T00:35:16.200Z,100670.19
2022-08-05T00:40:29.025Z,100676.31
2022-08-05T00:45:43.115Z,100666.22
2022-08-05T00:50:49.375Z,100655.38
2022-08-05T00:55:56.408Z,100650.84
2022-08-05T01:01:00.277Z,100644.38
2022-08-05T01:06:14.019Z,100667.81
2022-08-05T01:11:24.314Z,100648.81
2022-08-05T01:16:46.362Z,100651.28
2022-08-05T01:22:18.898Z,100647.09
2022-08-05T01:27:59.017Z,100655.41
2022-08-05T01:33:08.275Z,100658.78
2022-08-05T01:38:14.588Z,100652.34
2022-08-05T01:43:31.410Z,100641.34
2022-08-05T01:48:37.159Z,100664.81
2022-08-05T01:53:57.391Z,100670.88
2022-08-05T01:59:04.483Z,100663.13
2022-08-05T02:04:10.563Z,100642.78
2022-08-05T02:09:14.756Z,100622.97
2022-08-05T02:14:22.577Z,100630.44
2022-08-05T02:19:34.176Z,100675.25
2022-08-05T02:24:40.659Z,100643.84
2022-08-05T02:29:59.474Z,100563.13
2022-08-05T02:35:13.674Z,100578.97
2022-08-05T02:40:18.603Z,100561.00
2022-08-05T02:45:23.903Z,100656.16
2022-08-05T02:50:30.259Z,100643.94
2022-08-05T02:55:59.500Z,100543.97
2022-08-05T03:00:57.979Z,100554.63
2022-08-05T03:06:55.813Z,100534.50
2022-08-05T03:11:54.953Z,100522.00
2022-08-05T03:16:51.842Z,100543.78
2022-08-05T03:21:58.596Z,100577.84
2022-08-05T03:27:02.017Z,100616.19
2022-08-05T03:32:06.450Z,100610.66
2022-08-05T03:37:13.639Z,100622.06
2022-08-05T03:42:18.063Z,100629.41
2022-08-05T03:47:21.672Z,100619.94
2022-08-05T03:52:49.157Z,100624.63
2022-08-05T03:57:57.693Z,100606.44
2022-08-05T04:03:02.838Z,100608.75
2022-08-05T04:08:14.360Z,100606.50
2022-08-05T04:13:21.538Z,100603.44
2022-08-05T04:18:25.710Z,100614.53
2022-08-05T04:24:04.836Z,100631.88
2022-08-05T04:28:57.612Z,100640.38
2022-08-05T04:34:31.509Z,100635.81
2022-08-05T04:39:28.107Z,100640.91
2022-08-05T04:44:32.252Z,100628.22
2022-08-05T04:49:38.977Z,100640.34
2022-08-05T04:55:05.322Z,100648.16
2022-08-05T05:00:18.745Z,100643.72
2022-08-05T05:05:29.158Z,100659.59
2022-08-05T05:10:41.889Z,100650.53
2022-08-05T05:16:02.217Z,100643.56
2022-08-05T05:21:09.560Z,100628.09
2022-08-05T05:26:14.811Z,100648.63
2022-08-05T05:31:18.824Z,100653.09
2022-08-05T05:36:22.314Z,100659.06
2022-08-05T05:41:40.024Z,100651.28
2022-08-05T05:46:44.416Z,100681.47
2022-08-05T05:51:56.829Z,100669.59
2022-08-05T05:57:01.629Z,100687.63
2022-08-05T06:02:06.422Z,100691.63
2022-08-05T06:07:11.082Z,100694.16
2022-08-05T06:12:19.608Z,100727.66
2022-08-05T06:17:52.463Z,100795.97
2022-08-05T06:22:46.530Z,100832.97
2022-08-05T06:28:12.674Z,100843.81
2022-08-05T06:33:19.282Z,100726.91
2022-08-05T06:38:36.626Z,100711.41
2022-08-05T06:43:59.693Z,100690.75
2022-08-05T06:49:07.566Z,100674.94
2022-08-05T06:54:12.046Z,100676.88
2022-08-05T06:59:23.967Z,100667.03
2022-08-05T07:04:27.511Z,100647.84
2022-08-05T07:09:32.443Z,100650.22
2022-08-05T07:14:59.522Z,100646.72
2022-08-05T07:20:32.544Z,100687.16
2022-08-05T07:25:55.517Z,100680.63
2022-08-05T07:30:55.113Z,100696.44
2022-08-05T07:36:04.136Z,100694.19
2022-08-05T07:42:07.807Z,100690.06
2022-08-05T07:46:50.366Z,100704.16
2022-08-05T07:51:55.188Z,100679.22
2022-08-05T07:57:02.295Z,100703.72
2022-08-05T08:02:31.463Z,100694.16
2022-08-05T08:08:00.295Z,100704.16
2022-08-05T08:13:04.111Z,100678.47
2022-08-05T08:18:14.216Z,100663.25
2022-08-05T08:24:01.278Z,100669.84
2022-08-05T08:28:59.761Z,100662.50
2022-08-05T08:34:07.789Z,100693.19
2022-08-05T08:39:15.835Z,100705.13
2022-08-05T08:45:16.860Z,100718.09
2022-08-05T08:50:13.080Z,100720.25
2022-08-05T08:55:13.505Z,100739.53
2022-08-05T09:00:23.027Z,100747.53
2022-08-05T09:05:38.901Z,100755.31
2022-08-05T09:10:52.536Z,100751.94
2022-08-05T09:15:56.365Z,100775.88
2022-08-05T09:21:01.410Z,100779.16
2022-08-05T09:26:10.343Z,100781.91
2022-08-05T09:31:43.466Z,100770.13
2022-08-05T09:36:55.377Z,100767.00
2022-08-05T09:42:07.732Z,100788.16
2022-08-05T09:47:15.457Z,100784.56
2022-08-05T09:52:26.192Z,100785.91
2022-08-05T09:57:59.986Z,100776.75
2022-08-05T10:03:10.330Z,100783.81
2022-08-05T10:08:36.345Z,100791.34
2022-08-05T10:13:47.159Z,100788.00
2022-08-05T10:18:51.789Z,100790.91
2022-08-05T10:24:00.555Z,100787.38
2022-08-05T10:29:04.642Z,100801.94
2022-08-05T10:34:09.156Z,100801.63
2022-08-05T10:39:25.061Z,100807.06
2022-08-05T10:44:45.659Z,100906.31
2022-08-05T10:50:32.863Z,100845.16
2022-08-05T10:55:27.937Z,100875.00
2022-08-05T11:00:31.408Z,100899.38
2022-08-05T11:05:35.282Z,100877.50
2022-08-05T11:10:50.458Z,100886.41
2022-08-05T11:16:22.183Z,100887.59
2022-08-05T11:21:48.812Z,100899.47
2022-08-05T11:27:49.188Z,100885.69
2022-08-05T11:33:34.613Z,100885.19
2022-08-05T11:38:54.549Z,100880.41
2022-08-05T11:44:05.874Z,100881.13
2022-08-05T11:49:19.944Z,100885.22
2022-08-05T11:54:33.383Z,100903.50
2022-08-05T11:59:49.507Z,100904.19
2022-08-05T12:04:59.175Z,100932.94
2022-08-05T12:10:09.304Z,100950.41
2022-08-05T12:15:20.386Z,100968.78
2022-08-05T12:20:40.857Z,100970.75
2022-08-05T12:25:53.421Z,100978.66
2022-08-05T12:30:57.672Z,100975.91
2022-08-05T12:36:08.996Z,100974.34
2022-08-05T12:41:14.354Z,100995.03
2022-08-05T12:46:29.060Z,101008.38
2022-08-05T12:52:14.234Z,101013.03
2022-08-05T12:57:10.462Z,101002.91
2022-08-05T13:02:21.948Z,100991.78
2022-08-05T13:08:00.094Z,101004.44
2022-08-05T13:12:58.855Z,101012.00
2022-08-05T13:18:02.316Z,101004.09
2022-08-05T13:23:07.518Z,101017.78
2022-08-05T13:28:11.400Z,101015.50
2022-08-05T13:34:22.240Z,101013.22
2022-08-05T13:38:43.181Z,101021.75
2022-08-05T13:43:54.565Z,101019.50
2022-08-05T13:49:00.939Z,101034.00
2022-08-05T13:54:12.762Z,101042.72
2022-08-05T13:59:20.131Z,101055.72
2022-08-05T14:04:42.131Z,101054.00
2022-08-05T14:10:01.581Z,101060.47
2022-08-05T14:16:08.274Z,101058.97
2022-08-05T14:20:30.630Z,101055.50
2022-08-05T14:25:35.386Z,101062.16
2022-08-05T14:30:51.903Z,101070.00
2022-08-05T14:35:56.928Z,101074.19
2022-08-05T14:41:06.935Z,101068.41
2022-08-05T14:46:10.997Z,101078.19
2022-08-05T14:51:15.463Z,101070.97
2022-08-05T14:56:22.764Z,101074.16
2022-08-05T15:01:48.915Z,101084.50
2022-08-05T15:06:50.582Z,101088.25
2022-08-05T15:11:56.955Z,101085.53
2022-08-05T15:17:01.187Z,101094.09
2022-08-05T15:22:04.974Z,101090.53
2022-08-05T15:27:10.027Z,101089.88
2022-08-05T15:32:13.642Z,101087.88
2022-08-05T15:37:22.204Z,101091.34
2022-08-05T15:42:57.633Z,101094.13
2022-08-05T15:48:04.628Z,101101.34
2022-08-05T15:53:09.223Z,101085.38
2022-08-05T15:58:17.435Z,101088.22
2022-08-05T16:03:21.091Z,101086.81
2022-08-05T16:08:24.595Z,101080.97
2022-08-05T16:13:35.716Z,101079.94
2022-08-05T16:18:52.815Z,101092.38
2022-08-05T16:24:00.178Z,101102.59
2022-08-05T16:29:07.838Z,101089.72
2022-08-05T16:34:11.802Z,101092.00
2022-08-05T16:39:15.827Z,101096.75
2022-08-05T16:44:21.166Z,101096.41
2022-08-05T16:49:29.272Z,101100.25
2022-08-05T16:54:33.133Z,101102.19
2022-08-05T17:00:02.927Z,101106.63
2022-08-05T17:05:01.676Z,101103.63
2022-08-05T17:10:05.663Z,101101.81
2022-08-05T17:15:15.377Z,101105.97
2022-08-05T17:20:19.324Z,101116.84
2022-08-05T17:25:39.294Z,101112.69
2022-08-05T17:30:51.777Z,101136.59
2022-08-05T17:36:08.139Z,101144.63
2022-08-05T17:42:16.595Z,101162.59
2022-08-05T17:46:38.580Z,101172.34
2022-08-05T17:51:44.519Z,101171.25
2022-08-05T17:56:51.249Z,101178.66
2022-08-05T18:01:56.203Z,101197.44
2022-08-05T18:07:01.319Z,101207.25
2022-08-05T18:12:06.014Z,101208.28
2022-08-05T18:17:59.600Z,101217.28
2022-08-05T18:22:54.708Z,101222.25
2022-08-05T18:28:01.709Z,101252.25
2022-08-05T18:33:09.943Z,101255.03
2022-08-05T18:38:19.425Z,101264.97
2022-08-05T18:43:31.659Z,101266.31
2022-08-05T18:48:42.988Z,101277.22
2022-08-05T18:53:50.440Z,101288.28
2022-08-05T18:58:54.927Z,101290.84
2022-08-05T19:04:06.159Z,101305.13
2022-08-05T19:09:15.987Z,101315.56
2022-08-05T19:14:52.325Z,101306.47
2022-08-05T19:19:47.041Z,101331.56
2022-08-05T19:24:54.555Z,101334.81
2022-08-05T19:30:02.818Z,101348.94
2022-08-05T19:35:08.903Z,101366.09
2022-08-05T19:40:12.784Z,101376.00
2022-08-05T19:45:18.652Z,101384.38
2022-08-05T19:50:23.489Z,101386.16
2022-08-05T19:56:13.687Z,101398.09
2022-08-05T20:00:52.483Z,101398.69
2022-08-05T20:05:57.966Z,101410.69
2022-08-05T20:11:01.469Z,101413.59
2022-08-05T20:16:06.832Z,101431.63
2022-08-05T20:21:11.735Z,101441.09
2022-08-05T20:26:17.349Z,101439.13
2022-08-05T20:31:28.296Z,101447.47
2022-08-05T20:36:43.278Z,101448.00
2022-08-05T20:41:48.192Z,101467.09
2022-08-05T20:46:51.926Z,101467.50
2022-08-05T20:51:57.997Z,101487.31
2022-08-05T20:57:01.566Z,101487.06
2022-08-05T21:02:06.992Z,101483.41
2022-08-05T21:07:11.896Z,101481.09
2022-08-05T21:12:19.300Z,101488.31
2022-08-05T21:17:25.590Z,101485.06
2022-08-05T21:22:33.185Z,101491.16
2022-08-05T21:27:38.505Z,101488.53
2022-08-05T21:32:42.599Z,101498.56
2022-08-05T21:42:59.249Z,101513.47
2022-08-05T21:48:06.548Z,101515.44
2022-08-05T21:53:17.722Z,101522.75
2022-08-05T21:58:24.873Z,101518.66
2022-08-05T22:03:52.323Z,101523.34
2022-08-05T22:08:58.204Z,101519.69
2022-08-05T22:14:34.343Z,101524.03
2022-08-05T22:19:57.391Z,101520.78
2022-08-05T22:25:21.851Z,101539.22
2022-08-05T22:30:34.938Z,101547.00
2022-08-05T22:35:49.139Z,101544.84
2022-08-05T22:40:54.889Z,101549.78
2022-08-05T22:45:58.784Z,101547.91
2022-08-05T22:51:06.822Z,101559.78
2022-08-05T22:56:12.100Z,101575.09
2022-08-05T23:01:17.000Z,101574.16
2022-08-05T23:06:26.161Z,101589.22
2022-08-05T23:11:31.285Z,101589.03
2022-08-05T23:16:52.799Z,101580.59
2022-08-05T23:21:57.258Z,101581.94
2022-08-05T23:27:03.266Z,101573.25
2022-08-05T23:32:07.337Z,101593.41
2022-08-05T23:37:14.209Z,101590.59
2022-08-05T23:42:23.516Z,101595.34
2022-08-05T23:47:33.716Z,101599.78
2022-08-05T23:52:50.671Z,101618.31
2022-08-05T23:57:55.656Z,101623.03
